Julián Romano

Recruteur en chef - All Boys
3 Déc 2028
Dimanche
Processus

Personnalité

Adaptabilité (2) Ambition (6) Controverse (9) Loyauté (4) Pression (18) Professionnalisme (15) Sportivité (8) Tempérament (19)

Profil

Style d'entraînement Démocratique
Diplôme National B
Détermination 4
Gestion des joueurs 5
Motivation 3
Discipline 6
Satisfaction professionnelle
100%
Fatigue
0%
Rôle Recruteur en chef
Salaire 6.2K p/s
Contrat 14.03.2029

Performance

Comportement Bon
Efficacité de l'entraînement
14%
Développement des joueurs
35%
Prévention des blessures
35%
Mise en place tactique
10%

Événements récents

A évalué un joueur 7j
A évalué un joueur 7j
A évalué un joueur 7j
A évalué un joueur 14j
A évalué un joueur 14j
A évalué un joueur 14j
A évalué un joueur 14j
A évalué un joueur 14j

Suivi en cours

243
Joueur Club Statut Capacité Confiance Observé Dernière observation Dernier vote
Diego Gaitán Maipú Actif 124 / 125 40% 6 29.11.2028 -
Marcos Enrique Tristán Suárez Actif 115 / 126 40% 2 29.11.2028 -
Abel Bustos Racing Actif 122 / 129 40% 2 26.11.2028 -
Tobías Leiva Estudiantes Actif 111 / 116 40% 3 25.11.2028 -
Franco Vedoya Central Norte Actif 112 / 128 40% 5 25.11.2028 -
Facundo Taborda Racing Actif 104 / 105 40% 4 21.11.2028 -
Franco Bustamante Almagro Actif 96 / 90 40% 2 21.11.2028 -
Erik de los Santos Racing Actif 122 / 115 40% 3 20.11.2028 -
Matías Sosa Arsenal Actif 107 / 107 40% 2 20.11.2028 -
Enzo González Defensores Actif 112 / 115 40% 4 18.11.2028 -
Tomás Ferreyra Defensores Unidos Actif 120 / 113 40% 3 18.11.2028 -
José Barreto Quilmes Actif 120 / 124 40% 3 16.11.2028 -
Matías Bergara Nueva Chicago Actif 115 / 106 40% 3 16.11.2028 -
Rodrigo Ramírez Nueva Chicago Actif 114 / 123 40% 2 15.11.2028 -
Agustín Pereira Albion Actif 120 / 120 40% 3 15.11.2028 -
Gerónimo Tomasetti Temperley Actif 117 / 118 40% 4 14.11.2028 -
Santiago Sala Güemes Actif 120 / 119 40% 8 14.11.2028 -
Enderson Torrealba Estudiantes de Caracas Actif 99 / 83 40% 3 13.11.2028 -
Valentín Amoroso Plaza Colonia Actif 112 / 95 40% 1 13.11.2028 -
Gonzalo Flores Almirante Brown Actif 111 / 116 40% 2 08.11.2028 -
Nicolás Mosca Atlanta Actif 111 / 110 40% 2 08.11.2028 -
Camilo Machado Madryn Actif 113 / 101 40% 7 07.11.2028 -
Carlos Cantillo Jaguares Actif 121 / 124 40% 1 07.11.2028 -
Brandon Mejía Fortaleza CEIF Actif 100 / 100 40% 3 03.11.2028 -
Tomás Castro Ponce Atlanta Actif 113 / 111 40% 1 02.11.2028 -
Dylan Cabral Arsenal Actif 105 / 96 40% 1 02.11.2028 -
Sneider Navarro Metropolitanos Actif 102 / 101 40% 5 31.10.2028 -
Federico Versaci Talleres Actif 126 / 117 40% 6 30.10.2028 -
Gonzalo Trindade Nueva Chicago Actif 111 / 104 40% 1 30.10.2028 -
Francisco Ginella Albion Actif 105 / 118 40% 3 29.10.2028 -
Alejo Dramisino Atlanta Actif 112 / 114 40% 4 28.10.2028 -
Tiago Taobas Central Norte Actif 102 / 92 40% 1 27.10.2028 -
Enzo Silcan Almagro Actif 118 / 108 40% 4 25.10.2028 -
Kevin Colli Tristán Suárez Actif 109 / 105 40% 1 25.10.2028 -
Julián Brea Cobresal Actif 106 / 110 40% 2 24.10.2028 -
Renzo Reynaga Patronato Actif 117 / 106 40% 3 22.10.2028 -
Juan Camilo Quiñonez Llaneros Actif 103 / 90 40% 2 21.10.2028 -
Ramiro Makarte Alvarado Actif 103 / 113 40% 1 21.10.2028 -
Eyder Restrepo Llaneros Actif 109 / 96 40% 3 18.10.2028 -
Marco Miori Alvarado Actif 120 / 99 40% 5 18.10.2028 -
Martín Campos Ferro Carril Oeste Actif 131 / 119 40% 4 17.10.2028 -
Jhon Solís Fortaleza CEIF Actif 107 / 114 40% 2 17.10.2028 -
Marcelo Eggel Maipú Actif 103 / 117 40% 1 15.10.2028 -
Antonio Napolitano Agropecuario Argentino Actif 126 / 120 40% 2 14.10.2028 -
Pedro Sanz Central Norte Actif 115 / 107 40% 2 14.10.2028 -
Augusto Berrondo Tristán Suárez Actif 120 / 121 40% 5 13.10.2028 -
Thiago Lauro Morón Actif 115 / 130 40% 3 13.10.2028 -
Nicolás Retamar Ferro Carril Oeste Actif 119 / 122 40% 4 09.10.2028 -
Miguel Ceccotti Güemes Actif 105 / 115 40% 2 09.10.2028 -
Luis Olivera Defensores Unidos Actif 108 / 121 40% 2 08.10.2028 -
Simón Contreras Iquique Actif 108 / 94 40% 2 07.10.2028 -
David Veliz Güemes Actif 120 / 122 40% 3 06.10.2028 -
Román Gamarra San Telmo Actif 109 / 111 40% 2 02.10.2028 -
José Cadenas Zulia Actif 88 / 105 40% 1 02.10.2028 -
Franco Díaz Temperley Actif 133 / 135 40% 2 01.10.2028 -
Nicolás Medina Atlanta Actif 121 / 99 40% 1 30.09.2028 -
Nahuel Albano La Luz Actif 97 / 93 40% 2 29.09.2028 -
Bruno Pérez Madryn Actif 113 / 106 40% 2 23.09.2028 -
Agustín Dávila Cerro Largo Actif 90 / 97 40% 3 18.09.2028 -
Mauro Peinipil Colón Actif 114 / 126 40% 1 18.09.2028 -
Kevin Díaz Trujillanos Actif 94 / 84 40% 2 16.09.2028 -
Agustín Benítez Defensores Actif 125 / 106 40% 1 16.09.2028 -
Jerónimo Porto Lapegüe San Telmo Actif 119 / 114 40% 2 14.09.2028 -
Franco Ayunta Temperley Actif 117 / 98 40% 2 09.09.2028 -
Rodrigo Mosqueda River Plate Actif 105 / 109 40% 2 08.09.2028 -
Enzo Hoyos Ferro Carril Oeste Actif 110 / 115 40% 2 07.09.2028 -
Braian Aranda Agropecuario Argentino Actif 105 / 112 40% 1 03.09.2028 -
Álex Perdomo Defensor Sporting Actif 97 / 108 40% 3 30.08.2028 -
Nahuel Gómez Oriental Actif 94 / 86 40% 3 25.08.2028 -
Lucas Arzamendia Atenas Actif 98 / 94 40% 2 25.08.2028 -
Lautaro Gandulfo Central Espanol Actif 95 / 103 40% 2 23.08.2028 -
Juan Sebastián Herrera Deportivo La Guaira Actif 112 / 109 40% 1 20.08.2028 -
Gastón Moreyra Almirante Brown Actif 110 / 118 40% 4 18.08.2028 -
Juan Yangali San Telmo Actif 122 / 113 40% 1 13.08.2028 -
Tobías Salas Real Cartagena Actif 98 / 95 40% 1 13.08.2028 -
Facundo Villarreal Los Andes Actif 115 / 91 40% 2 11.08.2028 -
Samuel Bello Patriotas Actif 95 / 93 40% 1 09.08.2028 -
Carlos Airala Albion Actif 112 / 103 40% 4 06.08.2028 -
Owen Falconis Cerrito Actif 105 / 93 40% 5 05.08.2028 -
Julián Vera Maipú Actif 109 / 123 40% 3 05.08.2028 -
Gustavo Viera Cerro Largo Actif 102 / 103 40% 1 04.08.2028 -
Leison Cuero Colon Actif 87 / 86 40% 1 31.07.2028 -
Nazareno Petrecca Nueva Chicago Actif 101 / 93 40% 1 28.07.2028 -
Hervin Goyes Deportivo Pasto Actif 108 / 118 40% 1 27.07.2028 -
Jonathan Baeza La Luz Actif 106 / 91 40% 1 25.07.2028 -
Facundo Barreto Cerrito Actif 93 / 104 40% 1 13.07.2028 -
Siro Rosané Estudiantes Actif 121 / 122 40% 1 10.07.2028 -
Martín García Atlanta Actif 115 / 124 40% 1 10.07.2028 -
Ramón González Almirante Brown Actif 106 / 116 40% 1 09.07.2028 -
Pedro Souto Temperley Actif 109 / 130 40% 1 07.07.2028 -
Alan Olinick Racing Actif 124 / 111 40% 1 03.07.2028 -
Richard Castillo Valledupar Actif 73 / 81 40% 2 02.07.2028 -
Levit Béjar Universidad de Concepcion Actif 98 / 90 40% 1 30.06.2028 -
Brayan Castro Bogota Actif 104 / 84 40% 1 29.06.2028 -
Esteban de Lima Tacuarembo Actif 86 / 91 40% 1 27.06.2028 -
Johan Martínez Leones Actif 88 / 97 40% 1 26.06.2028 -
Sebastián Díaz Bogota Actif 102 / 93 40% 1 24.06.2028 -
Lucas Chiozza Alvarado Actif 116 / 114 40% 1 22.06.2028 -
Román Gutiérrez Albion Actif 93 / 91 40% 1 21.06.2028 -
Andrés Dieppa Bogota Actif 90 / 90 40% 2 13.06.2028 -
Franco Bigo 12 de Octubre Actif 95 / 85 40% 1 12.06.2028 -
Lucas López Iglesias 12 de Octubre Actif 87 / 102 40% 1 12.06.2028 -
Tobías Correa Uruguay Montevideo Actif 108 / 97 40% 2 07.06.2028 -
Iván Balanta Barranquilla Actif 87 / 93 40% 1 07.06.2028 -
Federico Bisanz Atlanta Actif 111 / 121 40% 1 28.12.2027 -
Christian Bravo Huachipato Actif 84 / 88 40% 2 14.12.2027 -
Oscar García Leon Actif 90 / 90 40% 2 12.12.2027 -
Mauro Rodas Sportivo Trinidense Actif 96 / 94 40% 2 10.12.2027 -
Lusiel Gómez La Luz Actif 91 / 100 40% 1 10.12.2027 -
Michael Barragán Union Magdalena Actif 105 / 90 40% 3 07.12.2027 -
Joaquín Bigo Tristán Suárez Actif 110 / 110 40% 1 07.12.2027 -
Cristian Santander Barranquilla Actif 117 / 116 40% 4 06.12.2027 -
Lautaro Herrera Estudiantes Actif 109 / 101 40% 3 06.12.2027 -
Diego Carreño O'Higgins Actif 106 / 88 40% 6 05.12.2027 -
Elías Villar Nacional Actif 86 / 101 40% 3 03.12.2027 -
Santiago Direnna Miramar Misiones Actif 81 / 71 40% 5 03.12.2027 -
Íker Blanco Deportivo Cali Actif 98 / 109 40% 1 01.12.2027 -
Sebastián Alzate Once Caldas Actif 98 / 86 40% 1 01.12.2027 -
Yeifer Herrera Leones Actif 90 / 104 40% 3 28.11.2027 -
Juan Esteban Gómez Atletico Nacional Actif 85 / 85 40% 1 28.11.2027 -
Mathías Bordón Sol de America Actif 79 / 85 40% 3 27.11.2027 -
Francisco Salerno Defensores Unidos Actif 120 / 120 40% 6 26.11.2027 -
Gali Balanta Deportes Tolima Actif 95 / 107 40% 3 25.11.2027 -
Facundo Machado Racing Actif 102 / 99 40% 1 25.11.2027 -
Brian Mancini Rampla Juniors Actif 94 / 92 40% 4 24.11.2027 -
Iván Chaves Patronato Actif 110 / 120 40% 3 24.11.2027 Observer
Antonio Martínez Cerro Porteno Actif 82 / 99 40% 2 23.11.2027 -
Jaime Acosta Barranquilla Actif 107 / 102 40% 2 21.11.2027 -
Sebastián Giraldo Depor Actif 94 / 87 40% 2 20.11.2027 -
Kevin Morgan Plaza Colonia Actif 97 / 119 40% 4 19.11.2027 -
Agustín Mieres Atlanta Actif 96 / 96 40% 2 16.11.2027 -
Lautaro Petruchi Gimnasia y Esgrima Actif 104 / 120 40% 2 15.11.2027 -
Facundo Vila Estudiantes Actif 98 / 116 40% 6 14.11.2027 -
Ramiro Véliz Artigas Actif 95 / 84 40% 1 14.11.2027 -
Adrián Acosta Portuguesa Actif 82 / 89 40% 2 12.11.2027 -
Santiago Scian Nautico Actif 78 / 83 40% 1 04.11.2027 -
Leo Ocampo Los Angeles Football Club Actif 83 / 85 40% 1 02.11.2027 -
Jesús Mejía Real Santander Actif 94 / 101 40% 1 30.10.2027 -
Santiago Videla Iquique Actif 90 / 103 40% 1 14.10.2027 -
Marco Espíndola Real Cartagena Actif 97 / 108 40% 1 11.10.2027 -
José Luis Torres Boston River Actif 79 / 82 40% 3 10.10.2027 -
Juan Ignacio Blanco Defensor Sporting Actif 82 / 83 40% 2 08.10.2027 -
Federico Bonilla River Plate Actif 98 / 91 40% 3 04.10.2027 -
Esteban Glellel Quilmes Actif 124 / 104 40% 3 29.09.2027 -
Alejandro Amaya Union Magdalena Actif 105 / 93 40% 1 28.09.2027 -
Jesús Peralta Olimpia Actif 90 / 85 40% 1 22.09.2027 -
Santiago Godoy 12 de Octubre Actif 86 / 87 40% 2 21.09.2027 -
Anthony Vilche Colon Actif 78 / 97 40% 2 17.09.2027 -
Joel Abraham Boston River Actif 84 / 103 40% 2 15.09.2027 -
Alex Mosquera Barranquilla Actif 89 / 96 40% 1 15.09.2027 -
Luis Mateus Atletico Bucaramanga Actif 79 / 104 40% 2 12.09.2027 -
Jonathan González River Plate Actif 99 / 89 40% 1 12.09.2027 -
Edison Gutiérrez Universitario Actif 71 / 89 40% 1 06.09.2027 -
César González Queretaro Actif 84 / 105 40% 2 05.09.2027 -
Mateo Stefan Cerro Largo Actif 76 / 79 40% 3 04.09.2027 -
Lucas Toffoletti Cienciano Actif 86 / 88 40% 2 26.08.2027 -
Felipe Bianchi Nacional Actif 74 / 82 40% 1 26.08.2027 -
Juan Miguel Betancourth Deportivo Pereira Actif 81 / 83 40% 2 25.08.2027 -
Yael Delgado Queretaro Actif 71 / 76 40% 1 20.08.2027 -
Roberto Moreno Cruz Azul Actif 73 / 78 40% 2 13.08.2027 -
Miguel Silva Carabobo Actif 113 / 121 40% 2 11.08.2027 -
Ezequiel Navarro Montoya Atlanta United FC Actif 100 / 78 40% 1 08.08.2027 -
Cristian Quiñónes General Caballero Actif 81 / 95 40% 2 04.08.2027 -
Fabián Palomino Ayacucho Actif 84 / 95 40% 1 03.08.2027 -
Ítalo Sulbarán Mineros de Guayana Actif 81 / 80 40% 1 02.08.2027 -
Antonio González Estudiantes de Caracas Actif 90 / 84 40% 1 02.08.2027 -
Omar Robles Real Cartagena Actif 81 / 88 40% 2 30.07.2027 -
Adrián Csenterics Deportivo Tachira Actif 90 / 92 40% 3 26.07.2027 -
Lautaro Bursich Talleres Actif 95 / 116 40% 1 23.07.2027 -
Moisés Gallo Aragua Actif 106 / 112 40% 4 20.07.2027 -
Gaizka Gómez Wanderers Actif 79 / 75 40% 2 19.07.2027 -
Tomás Barbero Defensores Unidos Actif 97 / 94 40% 1 15.07.2027 -
Oscar Meza Portuguesa Actif 94 / 90 40% 1 13.07.2027 -
Javier Bravo Mineros de Guayana Actif 81 / 92 40% 1 13.07.2027 -
Alex Payares Barranquilla Actif 93 / 95 40% 1 29.06.2027 -
Yeferson Cordova Llaneros Actif 102 / 104 40% 4 27.06.2027 -
Gastón Vega Artigas Actif 72 / 93 40% 1 22.06.2027 -
Luis Quintero Deportivo La Guaira Actif 98 / 104 40% 1 18.06.2027 -
Ángel Romero Guadalajara Actif 95 / 93 40% 1 14.06.2027 -
Tomás Palleres Güemes Actif 99 / 106 40% 2 30.05.2027 Plus d'infos
César Carrizo Mineros de Guayana Actif 104 / 81 40% 2 29.05.2027 -
Jorge Martínez Deportivo Pereira Actif 76 / 97 40% 1 25.05.2027 -
Marlon Flórez Estudiantes de Caracas Actif 87 / 72 40% 1 20.05.2027 -
Rafael Sánchez Estudiantes de Caracas Actif 98 / 98 40% 3 19.05.2027 -
Francisco Mongelos Sportivo Luqueno Actif 100 / 90 40% 1 14.05.2027 Plus d'infos
Nahuel Manganelli San Martín Actif 120 / 102 40% 1 11.05.2027 Plus d'infos
Andrés Macea Deportivo Pereira Actif 90 / 100 40% 1 22.04.2027 -
Alberto Martínez River Plate Actif 86 / 90 40% 1 17.04.2027 -
Nahuel Acosta Progreso Actif 101 / 112 40% 2 30.11.2026 -
Santiago Ramírez Deportivo Maldonado Actif 96 / 104 40% 3 29.11.2026 -
Ezequiel Almirón Estudiantes Actif 123 / 119 40% 1 27.11.2026 -
Franco Suárez Racing Actif 100 / 97 40% 1 26.11.2026 -
Nicolás Leites Artigas Actif 81 / 84 40% 3 24.11.2026 -
Gerónimo Blanco River Plate Actif 74 / 85 40% 1 22.11.2026 -
Juan Mendoza Güemes Actif 112 / 105 40% 1 22.11.2026 -
Nicolás Heiz Maipú Actif 120 / 113 40% 2 20.11.2026 -
Blas Armoa Gimnasia y Esgrima Actif 113 / 106 40% 1 17.11.2026 -
Lucas Pedraza Defensores Unidos Actif 108 / 107 40% 1 16.11.2026 -
Emiliano García Uruguay Montevideo Actif 98 / 99 40% 2 14.11.2026 -
Ronny Maza Aragua Actif 107 / 97 40% 3 14.11.2026 -
Sebastián Camacho Uruguay Montevideo Actif 90 / 99 40% 2 12.11.2026 -
Luca Bastilla Nashville SC Actif 86 / 113 40% 1 11.11.2026 -
Gianluca Pugliese Güemes Actif 115 / 108 40% 1 09.11.2026 -
Nahuel Marzochi Colon Actif 102 / 100 40% 3 06.11.2026 -
Luca Franco Arsenal Actif 97 / 118 40% 1 06.11.2026 -
Salomon Ramirez Atletico Venezuela Actif 97 / 106 40% 1 03.11.2026 -
Lisandro Cabrera Maipú Actif 127 / 105 40% 1 31.10.2026 -
Ignacio Pereira Danubio Actif 115 / 99 40% 1 25.10.2026 -
Marber Suárez Zulia Actif 84 / 98 40% 1 24.10.2026 -
Sebastián Marfort Racing Actif 109 / 100 40% 1 20.10.2026 -
Brian González Atenas Actif 90 / 91 40% 1 19.10.2026 -
Santiago Herrera Estudiantes de Caracas Actif 99 / 80 40% 2 16.10.2026 -
Germán Cervera Alvarado Actif 90 / 94 40% 1 16.10.2026 -
Esteban Moreira O'Higgins Actif 89 / 89 40% 1 13.10.2026 -
Agustín Juárez Minnesota United FC Actif 95 / 97 40% 1 12.10.2026 -
Cristian Lima Uruguay Montevideo Actif 90 / 98 40% 1 12.10.2026 -
Walter Domínguez Deportivo Maldonado Actif 81 / 104 40% 2 11.10.2026 -
Juan Álvarez Uruguay Montevideo Actif 101 / 90 40% 1 07.10.2026 -
Martín Pino Godoy Cruz Actif 125 / 102 40% 1 07.10.2026 -
Mauro Martín Progreso Actif 115 / 101 40% 1 06.10.2026 -
Renato Alexandrino Oriental Actif 100 / 84 40% 1 04.10.2026 -
Sebastián Cocimano Nueva Chicago Actif 123 / 128 40% 1 29.09.2026 -
Esteban Rodríguez Uruguay Montevideo Actif 88 / 90 40% 1 27.09.2026 -
José Rivas Gamboa Trujillanos Actif 100 / 99 40% 2 24.09.2026 -
Rodrigo Muníz Uruguay Montevideo Actif 99 / 95 40% 1 23.09.2026 -
Agustín Bianciotti Metropolitanos Actif 91 / 88 40% 1 19.09.2026 -
Nahuel Soria Oriental Actif 94 / 97 40% 1 18.09.2026 -
Carlos Torres Deportivo Pasto Actif 84 / 105 40% 1 14.09.2026 -
Franco Troyansky Audax Italiano Actif 116 / 101 40% 2 13.09.2026 -
Jimmy Evans Universidad Catolica Actif 100 / 106 40% 1 13.09.2026 -
Nahuel Sena Cerro Actif 110 / 97 40% 1 10.09.2026 -
Bruno Scorza La Luz Actif 85 / 108 40% 2 31.08.2026 -
Lucas Espinosa Colon Actif 92 / 69 40% 1 31.08.2026 -
Juan David Ruiz Leones Actif 81 / 77 40% 1 25.08.2026 -
Braian Vargas Cerro Actif 100 / 89 40% 1 18.08.2026 -
Kevin Campillay Antofagasta Actif 99 / 96 40% 1 17.08.2026 -
Nicolás Sosa La Luz Actif 76 / 93 40% 1 16.08.2026 -
Mauricio Liñán Bogota Actif 89 / 103 40% 1 15.08.2026 -
Diego Méndez Tacuarembo Actif 79 / 91 40% 1 14.08.2026 -
Lucas González Nacional Actif 114 / 111 40% 1 13.08.2026 -
Thomas González Cerro Largo Actif 80 / 71 40% 1 13.08.2026 -
Junior Paredes Trujillanos Actif 106 / 84 40% 1 08.08.2026 -
Franco Pérez Boston River Actif 93 / 101 40% 1 01.08.2026 -